x

West Sea Otter (46204) Wave Buoy

2:00pm - Wed 22nd Nov 2017 All times are PST. -8 hours from GMT.

  • Sig Wave height 8.5ft
  • Peak Period 12s
  • Wind
    29mph, 36mph gusts
  • Sea Temp 50°f
  • Air Temp 52°f
  • Sea Pressure 995.3mb
  • West Sea Otter
  • West Sea Otter

More Historic Weather Station data

Upgrade to MSW Pro to gain access to the past 30 days of data for over 8000 Wavebouys and Weather Stations around the globe.

Join

Comparision Forecast

View Surf forecast
   
Wed 11/22 2:00pm 8.5ft 12s 29 36 mph 995.3mb 50f 52f
1:00pm 9ft 12s 18 22 mph 996.4mb 50f 51f
12:00pm 10ft 10s 16 20 mph 998.8mb 50f 51f
11:00am 11ft 8s 25 31 mph 1000.2mb 50f 52f
10:00am 12.5ft 8s 29 36 mph 1000.4mb 50f 53f
9:00am 12.5ft 10s 36 43 mph 1000.3mb 50f 53f
8:00am 12ft 7s 34 38 mph 999.6mb 50f 53f
7:00am 11ft 8s 31 38 mph 999.8mb 50f 52f
5:00am  -   -  31
mph
- - 50f
4:00am 10ft 6s 36 43 mph 998.6mb 50f 51f
3:00am 10ft 7s 34 40 mph 999.3mb 50f 50f
2:00am 9ft 6s 36 45 mph 999.4mb 50f 49f
Tue 11/21 6:00pm 12.5ft 8s 36 45 mph 996.9mb 49f 47f
5:00pm 12.5ft 8s 40 51 mph 995.9mb 49f 47f
4:00pm 12ft 8s 40 49 mph 996.1mb 49f 47f
3:00pm 10.5ft 8s 36 47 mph 996.5mb 49f 46f
2:00pm 10ft 8s 22 29 mph 997.8mb 49f 45f
1:00pm 9.5ft 7s 22 27 mph 999.4mb 49f 45f
12:00pm  -   -  22
mph
1001mb - 45f
11:00am 7ft 8s 25 31 mph 1002.9mb 49f 45f
9:00am 6ft 9s 18 25 mph 1006.2mb 49f 47f
8:00am 7ft 8s 16 20 mph 1007.4mb 49f 47f
7:00am 7ft 9s 22 27 mph 1008.5mb 49f 47f
6:00am 7ft 6s 25 31 mph 1009.7mb 49f 47f
5:00am 7.5ft 6s 29 38 mph 1010.8mb 49f 46f
4:00am 7.5ft 6s 29 36 mph 1011mb 49f 46f
3:00am 8ft 6s 31 36 mph 1011.9mb 49f 46f
2:00am 7ft 6s 29 34 mph 1012.9mb 49f 46f
1:00am 7ft 6s 27 31 mph 1012.8mb 49f 46f
12:00am 7ft 5s 27 31 mph 1012.7mb 49f 46f
Mon 11/20 11:00pm 6.5ft 5s 27 34 mph 1013.5mb 50f 46f
10:00pm 6ft 9s 25 31 mph 1013mb 50f 46f
9:00pm 6.5ft 9s 25 29 mph 1012.8mb 50f 47f
8:00pm 5.5ft 8s 22 27 mph 1012.6mb 50f 47f
7:00pm 6ft 9s 20 25 mph 1011.8mb 50f 47f
6:00pm 6ft 11s 18 22 mph 1010.9mb 50f 47f
5:00pm 5.5ft 10s 18 22 mph 1010.1mb 50f 47f
4:00pm 5ft 11s 18 22 mph 1009.3mb 50f 46f
3:00pm 5ft 10s 18 20 mph 1008.6mb 50f 46f
2:00pm 5.5ft 9s 18 20 mph 1007.9mb 50f 45f
1:00pm 5ft 9s 13 18 mph 1007.5mb 50f 45f
12:00pm 5ft 9s 13 13 mph 1007mb 50f 44f
11:00am 6ft 10s 13 16 mph 1006.1mb 50f 44f
10:00am 6ft 10s 11 13 mph 1005.5mb 50f 44f
9:00am 5.5ft 9s 11 13 mph 1004.7mb 50f 44f
8:00am 6.5ft 9s 11 13 mph 1003.5mb 50f 43f
7:00am 6.5ft 10s 11 13 mph 1002.7mb 50f 44f
6:00am 6ft 9s 11 13 mph 1002.4mb 50f 44f
5:00am 6ft 10s 9 13 mph 1002.1mb 50f 44f
4:00am 6ft 10s 11 13 mph 1001.8mb 49f 44f
3:00am 6.5ft 10s 9 13 mph 1001.8mb 50f 45f
2:00am 6ft 10s 4 9 mph 1001.5mb 49f 45f
1:00am 7ft 10s 2 4 mph 1001.1mb 49f 45f
12:00am 7ft 11s 2 4 mph 1001.1mb 50f 45f
Sun 11/19 11:00pm 7ft 10s 4 9 mph 1000.9mb 50f 45f
10:00pm 7.5ft 8s 7 11 mph 1000.7mb 50f 45f
9:00pm 7.5ft 10s 4 7 mph 1000.6mb 50f 46f
8:00pm 8.5ft 10s 2 7 mph 1000.3mb 50f 46f
7:00pm 8ft 10s 2 4 mph 1000.1mb 50f 46f
6:00pm 8.5ft 10s 4 9 mph 999.9mb 50f 46f
5:00pm 8ft 11s 4 9 mph 999.7mb 50f 45f
4:00pm 9ft 10s 9 13 mph 999.6mb 50f 46f
3:00pm 8ft 11s 7 9 mph 999.5mb 50f 46f
2:00pm 8.5ft 11s 9 11 mph 999.5mb 50f 46f
1:00pm 9ft 10s 11 13 mph 999.6mb 50f 46f
12:00pm 9ft 10s 11 13 mph 1000.1mb 50f 47f
11:00am 9.5ft 10s 13 18 mph 1000.2mb 50f 47f
10:00am 10ft 10s 13 18 mph 1000.3mb 50f 47f
9:00am 11ft 10s 16 18 mph 1000.2mb 50f 47f
8:00am 12ft 11s 16 20 mph 1000.1mb 50f 47f
7:00am 10ft 10s 18 22 mph 1000mb 50f 47f
6:00am 12.5ft 10s 18 22 mph 999.6mb 50f 47f
4:00am 10ft 10s 16 22 mph 998.9mb 50f 47f
3:00am 10.5ft 11s 11 13 mph 999mb 50f 47f
2:00am 11ft 10s 9 13 mph 999.2mb 50f 48f
1:00am 11.5ft 10s 9 11 mph 999.2mb 50f 48f
12:00am 11ft 10s 13 18 mph 999.6mb 50f 49f